sensor_id;sensor_type;location;lat;lon;timestamp;P1;durP1;ratioP1;P2;durP2;ratioP2
16735;SDS011;17990;49.548;9.730;2023-08-31T00:00:53;2.80;;;1.60;;
16735;SDS011;17990;49.548;9.730;2023-08-31T00:03:20;3.33;;;1.30;;
16735;SDS011;17990;49.548;9.730;2023-08-31T00:05:47;1.90;;;1.30;;
16735;SDS011;17990;49.548;9.730;2023-08-31T00:08:16;2.37;;;1.40;;
16735;SDS011;17990;49.548;9.730;2023-08-31T00:10:43;3.03;;;1.27;;
16735;SDS011;17990;49.548;9.730;2023-08-31T00:13:11;2.17;;;1.40;;
16735;SDS011;17990;49.548;9.730;2023-08-31T00:15:38;2.20;;;1.10;;
16735;SDS011;17990;49.548;9.730;2023-08-31T00:18:06;2.13;;;1.33;;
16735;SDS011;17990;49.548;9.730;2023-08-31T00:20:33;2.33;;;1.40;;
16735;SDS011;17990;49.548;9.730;2023-08-31T00:23:00;4.07;;;1.97;;
16735;SDS011;17990;49.548;9.730;2023-08-31T00:25:26;2.03;;;1.67;;
16735;SDS011;17990;49.548;9.730;2023-08-31T00:27:53;2.50;;;1.70;;
16735;SDS011;17990;49.548;9.730;2023-08-31T00:30:23;2.97;;;2.10;;
16735;SDS011;17990;49.548;9.730;2023-08-31T00:32:54;3.13;;;1.87;;
16735;SDS011;17990;49.548;9.730;2023-08-31T00:35:24;1.90;;;1.70;;
16735;SDS011;17990;49.548;9.730;2023-08-31T00:37:52;4.63;;;1.60;;
16735;SDS011;17990;49.548;9.730;2023-08-31T00:40:23;2.70;;;1.60;;
16735;SDS011;17990;49.548;9.730;2023-08-31T00:42:50;4.03;;;1.80;;
16735;SDS011;17990;49.548;9.730;2023-08-31T00:45:17;4.47;;;1.97;;
16735;SDS011;17990;49.548;9.730;2023-08-31T00:47:45;2.50;;;1.80;;
16735;SDS011;17990;49.548;9.730;2023-08-31T00:50:14;3.60;;;1.70;;
16735;SDS011;17990;49.548;9.730;2023-08-31T00:52:41;2.80;;;1.67;;
16735;SDS011;17990;49.548;9.730;2023-08-31T00:55:09;3.30;;;1.73;;
16735;SDS011;17990;49.548;9.730;2023-08-31T00:57:36;3.33;;;1.87;;
16735;SDS011;17990;49.548;9.730;2023-08-31T01:00:03;1.93;;;1.30;;
16735;SDS011;17990;49.548;9.730;2023-08-31T01:02:34;2.83;;;2.03;;
16735;SDS011;17990;49.548;9.730;2023-08-31T01:05:11;3.70;;;1.80;;
16735;SDS011;17990;49.548;9.730;2023-08-31T01:07:48;2.20;;;1.63;;
16735;SDS011;17990;49.548;9.730;2023-08-31T01:10:24;2.27;;;1.70;;
16735;SDS011;17990;49.548;9.730;2023-08-31T01:12:58;4.10;;;1.97;;
16735;SDS011;17990;49.548;9.730;2023-08-31T01:15:28;3.93;;;2.17;;
16735;SDS011;17990;49.548;9.730;2023-08-31T01:17:57;3.73;;;1.90;;
16735;SDS011;17990;49.548;9.730;2023-08-31T01:20:28;3.10;;;1.90;;
16735;SDS011;17990;49.548;9.730;2023-08-31T01:23:01;4.13;;;1.83;;
16735;SDS011;17990;49.548;9.730;2023-08-31T01:25:31;2.37;;;1.73;;
16735;SDS011;17990;49.548;9.730;2023-08-31T01:28:00;4.57;;;2.20;;
16735;SDS011;17990;49.548;9.730;2023-08-31T01:30:29;3.40;;;1.70;;
16735;SDS011;17990;49.548;9.730;2023-08-31T01:32:57;3.53;;;2.00;;
16735;SDS011;17990;49.548;9.730;2023-08-31T01:35:24;2.93;;;1.80;;
16735;SDS011;17990;49.548;9.730;2023-08-31T01:37:53;2.37;;;1.83;;
16735;SDS011;17990;49.548;9.730;2023-08-31T01:40:23;2.57;;;1.83;;
16735;SDS011;17990;49.548;9.730;2023-08-31T01:42:59;2.20;;;1.80;;
16735;SDS011;17990;49.548;9.730;2023-08-31T01:45:28;2.93;;;1.90;;
16735;SDS011;17990;49.548;9.730;2023-08-31T01:47:56;2.50;;;1.70;;
16735;SDS011;17990;49.548;9.730;2023-08-31T01:50:23;2.43;;;1.87;;
16735;SDS011;17990;49.548;9.730;2023-08-31T01:52:50;2.87;;;2.10;;
16735;SDS011;17990;49.548;9.730;2023-08-31T01:55:18;6.13;;;2.00;;
16735;SDS011;17990;49.548;9.730;2023-08-31T01:57:46;4.93;;;2.00;;
16735;SDS011;17990;49.548;9.730;2023-08-31T02:00:15;4.60;;;2.33;;
16735;SDS011;17990;49.548;9.730;2023-08-31T02:02:43;4.43;;;2.00;;
16735;SDS011;17990;49.548;9.730;2023-08-31T02:05:10;2.73;;;1.83;;
16735;SDS011;17990;49.548;9.730;2023-08-31T02:07:37;3.90;;;2.27;;
16735;SDS011;17990;49.548;9.730;2023-08-31T02:10:05;3.47;;;2.30;;
16735;SDS011;17990;49.548;9.730;2023-08-31T02:12:32;3.60;;;2.60;;
16735;SDS011;17990;49.548;9.730;2023-08-31T02:15:01;5.97;;;2.90;;
16735;SDS011;17990;49.548;9.730;2023-08-31T02:17:30;3.83;;;2.87;;
16735;SDS011;17990;49.548;9.730;2023-08-31T02:19:57;5.33;;;3.17;;
16735;SDS011;17990;49.548;9.730;2023-08-31T02:22:25;6.73;;;3.37;;
16735;SDS011;17990;49.548;9.730;2023-08-31T02:24:52;6.00;;;3.43;;
16735;SDS011;17990;49.548;9.730;2023-08-31T02:27:18;6.83;;;3.97;;
16735;SDS011;17990;49.548;9.730;2023-08-31T02:29:45;5.57;;;3.73;;
16735;SDS011;17990;49.548;9.730;2023-08-31T02:32:12;5.40;;;3.83;;
16735;SDS011;17990;49.548;9.730;2023-08-31T02:34:40;7.10;;;3.67;;
16735;SDS011;17990;49.548;9.730;2023-08-31T02:37:06;5.27;;;4.10;;
16735;SDS011;17990;49.548;9.730;2023-08-31T02:39:33;5.10;;;3.70;;
16735;SDS011;17990;49.548;9.730;2023-08-31T02:42:00;5.13;;;3.40;;
16735;SDS011;17990;49.548;9.730;2023-08-31T02:44:27;3.67;;;3.37;;
16735;SDS011;17990;49.548;9.730;2023-08-31T02:46:53;4.60;;;3.50;;
16735;SDS011;17990;49.548;9.730;2023-08-31T02:49:21;5.00;;;3.63;;
16735;SDS011;17990;49.548;9.730;2023-08-31T02:51:49;8.10;;;4.00;;
16735;SDS011;17990;49.548;9.730;2023-08-31T02:54:16;6.20;;;3.60;;
16735;SDS011;17990;49.548;9.730;2023-08-31T02:56:44;6.20;;;3.67;;
16735;SDS011;17990;49.548;9.730;2023-08-31T02:59:11;3.93;;;3.50;;
16735;SDS011;17990;49.548;9.730;2023-08-31T03:01:37;5.90;;;4.10;;
16735;SDS011;17990;49.548;9.730;2023-08-31T03:04:05;4.73;;;3.50;;
16735;SDS011;17990;49.548;9.730;2023-08-31T03:06:32;6.63;;;3.53;;
16735;SDS011;17990;49.548;9.730;2023-08-31T03:09:00;7.23;;;3.70;;
16735;SDS011;17990;49.548;9.730;2023-08-31T03:11:28;6.70;;;3.87;;
16735;SDS011;17990;49.548;9.730;2023-08-31T03:13:56;5.70;;;3.90;;
16735;SDS011;17990;49.548;9.730;2023-08-31T03:16:22;5.50;;;3.83;;
16735;SDS011;17990;49.548;9.730;2023-08-31T03:18:49;5.10;;;3.73;;
16735;SDS011;17990;49.548;9.730;2023-08-31T03:21:16;4.83;;;4.10;;
16735;SDS011;17990;49.548;9.730;2023-08-31T03:23:42;5.17;;;4.13;;
16735;SDS011;17990;49.548;9.730;2023-08-31T03:26:10;6.93;;;4.80;;
16735;SDS011;17990;49.548;9.730;2023-08-31T03:28:37;7.47;;;5.00;;
16735;SDS011;17990;49.548;9.730;2023-08-31T03:31:05;5.47;;;4.80;;
16735;SDS011;17990;49.548;9.730;2023-08-31T03:33:32;6.80;;;4.80;;
16735;SDS011;17990;49.548;9.730;2023-08-31T03:35:59;7.33;;;5.10;;
16735;SDS011;17990;49.548;9.730;2023-08-31T03:38:29;8.73;;;6.23;;
16735;SDS011;17990;49.548;9.730;2023-08-31T03:40:56;7.13;;;5.20;;
16735;SDS011;17990;49.548;9.730;2023-08-31T03:43:24;6.00;;;4.97;;
16735;SDS011;17990;49.548;9.730;2023-08-31T03:45:53;5.87;;;5.20;;
16735;SDS011;17990;49.548;9.730;2023-08-31T03:48:21;7.60;;;5.17;;
16735;SDS011;17990;49.548;9.730;2023-08-31T03:50:48;4.53;;;4.07;;
16735;SDS011;17990;49.548;9.730;2023-08-31T03:53:16;8.37;;;5.00;;
16735;SDS011;17990;49.548;9.730;2023-08-31T03:55:42;9.53;;;7.23;;
16735;SDS011;17990;49.548;9.730;2023-08-31T03:58:09;8.67;;;5.77;;
16735;SDS011;17990;49.548;9.730;2023-08-31T04:00:38;6.20;;;5.37;;
16735;SDS011;17990;49.548;9.730;2023-08-31T04:03:04;4.80;;;4.20;;
16735;SDS011;17990;49.548;9.730;2023-08-31T04:05:32;5.87;;;4.23;;
16735;SDS011;17990;49.548;9.730;2023-08-31T04:07:59;5.93;;;4.20;;
16735;SDS011;17990;49.548;9.730;2023-08-31T04:10:25;7.17;;;4.10;;
16735;SDS011;17990;49.548;9.730;2023-08-31T04:12:54;5.87;;;4.23;;
16735;SDS011;17990;49.548;9.730;2023-08-31T04:15:21;6.17;;;4.40;;
16735;SDS011;17990;49.548;9.730;2023-08-31T04:17:49;8.57;;;5.93;;
16735;SDS011;17990;49.548;9.730;2023-08-31T04:20:16;7.60;;;5.90;;
16735;SDS011;17990;49.548;9.730;2023-08-31T04:22:43;7.03;;;5.60;;
16735;SDS011;17990;49.548;9.730;2023-08-31T04:25:10;7.40;;;6.00;;
16735;SDS011;17990;49.548;9.730;2023-08-31T04:27:37;8.40;;;5.80;;
16735;SDS011;17990;49.548;9.730;2023-08-31T04:30:05;9.10;;;5.43;;
16735;SDS011;17990;49.548;9.730;2023-08-31T04:32:33;8.23;;;6.67;;
16735;SDS011;17990;49.548;9.730;2023-08-31T04:35:01;7.83;;;6.00;;
16735;SDS011;17990;49.548;9.730;2023-08-31T04:37:30;7.77;;;6.10;;
16735;SDS011;17990;49.548;9.730;2023-08-31T04:39:56;7.87;;;6.10;;
16735;SDS011;17990;49.548;9.730;2023-08-31T04:42:24;9.20;;;5.53;;
16735;SDS011;17990;49.548;9.730;2023-08-31T04:44:50;6.53;;;5.87;;
16735;SDS011;17990;49.548;9.730;2023-08-31T04:47:17;8.27;;;5.70;;
16735;SDS011;17990;49.548;9.730;2023-08-31T04:49:44;10.40;;;5.73;;
16735;SDS011;17990;49.548;9.730;2023-08-31T04:52:12;10.97;;;6.20;;
16735;SDS011;17990;49.548;9.730;2023-08-31T04:54:39;8.00;;;5.57;;
16735;SDS011;17990;49.548;9.730;2023-08-31T04:57:05;7.77;;;5.87;;
16735;SDS011;17990;49.548;9.730;2023-08-31T04:59:33;6.83;;;5.57;;
16735;SDS011;17990;49.548;9.730;2023-08-31T05:01:59;7.53;;;6.27;;
16735;SDS011;17990;49.548;9.730;2023-08-31T05:04:26;9.10;;;5.80;;
16735;SDS011;17990;49.548;9.730;2023-08-31T05:06:53;7.07;;;5.60;;
16735;SDS011;17990;49.548;9.730;2023-08-31T05:09:23;7.40;;;5.30;;
16735;SDS011;17990;49.548;9.730;2023-08-31T05:11:50;6.23;;;5.40;;
16735;SDS011;17990;49.548;9.730;2023-08-31T05:14:17;6.23;;;5.47;;
16735;SDS011;17990;49.548;9.730;2023-08-31T05:16:44;6.53;;;5.20;;
16735;SDS011;17990;49.548;9.730;2023-08-31T05:19:12;8.97;;;5.63;;
16735;SDS011;17990;49.548;9.730;2023-08-31T05:21:39;7.70;;;5.70;;
16735;SDS011;17990;49.548;9.730;2023-08-31T05:24:05;7.67;;;5.13;;
16735;SDS011;17990;49.548;9.730;2023-08-31T05:26:34;9.13;;;5.40;;
16735;SDS011;17990;49.548;9.730;2023-08-31T05:29:00;6.00;;;5.17;;
16735;SDS011;17990;49.548;9.730;2023-08-31T05:31:30;6.03;;;5.20;;
16735;SDS011;17990;49.548;9.730;2023-08-31T05:33:57;6.40;;;5.30;;
16735;SDS011;17990;49.548;9.730;2023-08-31T05:36:23;7.67;;;4.90;;
16735;SDS011;17990;49.548;9.730;2023-08-31T05:38:50;9.57;;;5.60;;
16735;SDS011;17990;49.548;9.730;2023-08-31T05:41:18;7.13;;;5.30;;
16735;SDS011;17990;49.548;9.730;2023-08-31T05:43:46;7.33;;;5.10;;
16735;SDS011;17990;49.548;9.730;2023-08-31T05:46:13;6.87;;;5.07;;
16735;SDS011;17990;49.548;9.730;2023-08-31T05:48:39;6.47;;;5.10;;
16735;SDS011;17990;49.548;9.730;2023-08-31T05:51:06;6.03;;;5.43;;
16735;SDS011;17990;49.548;9.730;2023-08-31T05:53:33;6.83;;;4.77;;
16735;SDS011;17990;49.548;9.730;2023-08-31T05:56:00;7.43;;;4.50;;
16735;SDS011;17990;49.548;9.730;2023-08-31T05:58:29;5.13;;;4.10;;
16735;SDS011;17990;49.548;9.730;2023-08-31T06:00:58;5.13;;;3.90;;
16735;SDS011;17990;49.548;9.730;2023-08-31T06:03:25;6.17;;;3.37;;
16735;SDS011;17990;49.548;9.730;2023-08-31T06:05:52;6.53;;;2.50;;
16735;SDS011;17990;49.548;9.730;2023-08-31T06:08:20;4.33;;;2.07;;
16735;SDS011;17990;49.548;9.730;2023-08-31T06:10:47;5.70;;;1.87;;
16735;SDS011;17990;49.548;9.730;2023-08-31T06:13:13;4.53;;;1.97;;
16735;SDS011;17990;49.548;9.730;2023-08-31T06:15:40;2.03;;;1.77;;
16735;SDS011;17990;49.548;9.730;2023-08-31T06:18:08;3.00;;;1.77;;
16735;SDS011;17990;49.548;9.730;2023-08-31T06:20:35;2.60;;;1.98;;
16735;SDS011;17990;49.548;9.730;2023-08-31T06:23:02;2.97;;;1.77;;
16735;SDS011;17990;49.548;9.730;2023-08-31T06:25:29;4.65;;;1.88;;
16735;SDS011;17990;49.548;9.730;2023-08-31T06:27:56;3.08;;;2.22;;
16735;SDS011;17990;49.548;9.730;2023-08-31T06:30:23;3.95;;;2.35;;
16735;SDS011;17990;49.548;9.730;2023-08-31T06:32:50;3.75;;;1.88;;
16735;SDS011;17990;49.548;9.730;2023-08-31T06:35:18;4.03;;;1.65;;
16735;SDS011;17990;49.548;9.730;2023-08-31T06:37:46;3.08;;;1.50;;
16735;SDS011;17990;49.548;9.730;2023-08-31T06:40:13;3.35;;;1.88;;
16735;SDS011;17990;49.548;9.730;2023-08-31T06:42:39;2.65;;;1.80;;
16735;SDS011;17990;49.548;9.730;2023-08-31T06:45:07;5.20;;;1.85;;
16735;SDS011;17990;49.548;9.730;2023-08-31T06:47:35;4.13;;;1.75;;
16735;SDS011;17990;49.548;9.730;2023-08-31T06:50:01;3.58;;;1.50;;
16735;SDS011;17990;49.548;9.730;2023-08-31T06:52:30;3.13;;;1.50;;
16735;SDS011;17990;49.548;9.730;2023-08-31T06:54:57;3.75;;;1.90;;
16735;SDS011;17990;49.548;9.730;2023-08-31T06:57:23;3.65;;;1.77;;
16735;SDS011;17990;49.548;9.730;2023-08-31T06:59:51;2.90;;;1.60;;
16735;SDS011;17990;49.548;9.730;2023-08-31T07:02:18;3.90;;;1.58;;
16735;SDS011;17990;49.548;9.730;2023-08-31T07:04:47;4.28;;;1.50;;
16735;SDS011;17990;49.548;9.730;2023-08-31T07:07:14;4.43;;;1.35;;
16735;SDS011;17990;49.548;9.730;2023-08-31T07:09:43;2.17;;;1.33;;
16735;SDS011;17990;49.548;9.730;2023-08-31T07:12:10;3.17;;;1.67;;
16735;SDS011;17990;49.548;9.730;2023-08-31T07:14:37;3.30;;;1.40;;
16735;SDS011;17990;49.548;9.730;2023-08-31T07:17:04;4.22;;;1.50;;
16735;SDS011;17990;49.548;9.730;2023-08-31T07:19:31;2.58;;;1.40;;
16735;SDS011;17990;49.548;9.730;2023-08-31T07:22:01;2.50;;;1.45;;
16735;SDS011;17990;49.548;9.730;2023-08-31T07:24:29;3.22;;;1.45;;
16735;SDS011;17990;49.548;9.730;2023-08-31T07:26:57;7.82;;;1.50;;
16735;SDS011;17990;49.548;9.730;2023-08-31T07:29:24;1.50;;;1.10;;
16735;SDS011;17990;49.548;9.730;2023-08-31T07:31:50;2.70;;;1.38;;
16735;SDS011;17990;49.548;9.730;2023-08-31T07:34:17;6.15;;;1.50;;
16735;SDS011;17990;49.548;9.730;2023-08-31T07:36:44;3.08;;;1.42;;
16735;SDS011;17990;49.548;9.730;2023-08-31T07:39:11;2.72;;;1.10;;
16735;SDS011;17990;49.548;9.730;2023-08-31T07:41:38;5.18;;;1.50;;
16735;SDS011;17990;49.548;9.730;2023-08-31T07:44:06;2.17;;;1.40;;
16735;SDS011;17990;49.548;9.730;2023-08-31T07:46:33;3.08;;;1.48;;
16735;SDS011;17990;49.548;9.730;2023-08-31T07:49:00;4.20;;;1.38;;
16735;SDS011;17990;49.548;9.730;2023-08-31T07:51:28;2.20;;;1.48;;
16735;SDS011;17990;49.548;9.730;2023-08-31T07:53:55;4.32;;;1.40;;
16735;SDS011;17990;49.548;9.730;2023-08-31T07:56:21;3.35;;;1.50;;
16735;SDS011;17990;49.548;9.730;2023-08-31T07:58:48;2.15;;;1.17;;
16735;SDS011;17990;49.548;9.730;2023-08-31T08:01:16;1.58;;;1.20;;
16735;SDS011;17990;49.548;9.730;2023-08-31T08:03:43;2.15;;;1.30;;
16735;SDS011;17990;49.548;9.730;2023-08-31T08:06:10;2.33;;;1.30;;
16735;SDS011;17990;49.548;9.730;2023-08-31T08:08:37;3.67;;;1.63;;
16735;SDS011;17990;49.548;9.730;2023-08-31T08:11:04;2.95;;;1.83;;
16735;SDS011;17990;49.548;9.730;2023-08-31T08:13:30;2.30;;;1.50;;
16735;SDS011;17990;49.548;9.730;2023-08-31T08:15:57;3.65;;;1.42;;
16735;SDS011;17990;49.548;9.730;2023-08-31T08:18:25;3.53;;;1.52;;
16735;SDS011;17990;49.548;9.730;2023-08-31T08:20:52;3.88;;;1.30;;
16735;SDS011;17990;49.548;9.730;2023-08-31T08:23:19;2.72;;;1.58;;
16735;SDS011;17990;49.548;9.730;2023-08-31T08:25:46;2.90;;;1.45;;
16735;SDS011;17990;49.548;9.730;2023-08-31T08:28:13;4.07;;;1.90;;
16735;SDS011;17990;49.548;9.730;2023-08-31T08:30:40;2.50;;;1.33;;
16735;SDS011;17990;49.548;9.730;2023-08-31T08:33:07;2.83;;;1.33;;
16735;SDS011;17990;49.548;9.730;2023-08-31T08:35:36;4.00;;;1.50;;
16735;SDS011;17990;49.548;9.730;2023-08-31T08:38:03;2.65;;;1.38;;
16735;SDS011;17990;49.548;9.730;2023-08-31T08:40:30;3.42;;;1.40;;
16735;SDS011;17990;49.548;9.730;2023-08-31T08:42:57;3.05;;;1.52;;
16735;SDS011;17990;49.548;9.730;2023-08-31T08:45:26;6.10;;;1.35;;
16735;SDS011;17990;49.548;9.730;2023-08-31T08:47:57;3.50;;;1.50;;
16735;SDS011;17990;49.548;9.730;2023-08-31T08:50:24;2.70;;;1.23;;
16735;SDS011;17990;49.548;9.730;2023-08-31T08:52:55;2.20;;;1.35;;
16735;SDS011;17990;49.548;9.730;2023-08-31T08:55:21;3.58;;;1.20;;
16735;SDS011;17990;49.548;9.730;2023-08-31T08:57:48;2.13;;;1.08;;
16735;SDS011;17990;49.548;9.730;2023-08-31T09:00:15;2.53;;;1.20;;
16735;SDS011;17990;49.548;9.730;2023-08-31T09:02:42;2.05;;;1.00;;
16735;SDS011;17990;49.548;9.730;2023-08-31T09:05:10;2.58;;;1.10;;
16735;SDS011;17990;49.548;9.730;2023-08-31T09:07:38;2.15;;;1.10;;
16735;SDS011;17990;49.548;9.730;2023-08-31T09:10:30;3.00;;;1.30;;
16735;SDS011;17990;49.548;9.730;2023-08-31T09:13:00;2.40;;;1.50;;
16735;SDS011;17990;49.548;9.730;2023-08-31T09:15:35;2.75;;;1.15;;
16735;SDS011;17990;49.548;9.730;2023-08-31T09:18:03;3.15;;;1.27;;
16735;SDS011;17990;49.548;9.730;2023-08-31T09:20:30;6.07;;;1.27;;
16735;SDS011;17990;49.548;9.730;2023-08-31T09:22:57;2.28;;;1.10;;
16735;SDS011;17990;49.548;9.730;2023-08-31T09:25:24;5.35;;;1.45;;
16735;SDS011;17990;49.548;9.730;2023-08-31T09:27:52;2.42;;;1.13;;
16735;SDS011;17990;49.548;9.730;2023-08-31T09:30:19;4.53;;;1.42;;
16735;SDS011;17990;49.548;9.730;2023-08-31T09:32:51;3.78;;;1.90;;
16735;SDS011;17990;49.548;9.730;2023-08-31T09:35:18;2.45;;;1.23;;
16735;SDS011;17990;49.548;9.730;2023-08-31T09:37:53;3.88;;;1.20;;
16735;SDS011;17990;49.548;9.730;2023-08-31T09:40:21;3.70;;;1.00;;
16735;SDS011;17990;49.548;9.730;2023-08-31T09:42:49;2.78;;;1.35;;
16735;SDS011;17990;49.548;9.730;2023-08-31T09:45:17;2.75;;;1.48;;
16735;SDS011;17990;49.548;9.730;2023-08-31T09:47:51;4.20;;;1.50;;
16735;SDS011;17990;49.548;9.730;2023-08-31T09:50:18;1.80;;;1.30;;
16735;SDS011;17990;49.548;9.730;2023-08-31T09:52:45;1.88;;;1.10;;
16735;SDS011;17990;49.548;9.730;2023-08-31T09:55:13;3.25;;;1.23;;
16735;SDS011;17990;49.548;9.730;2023-08-31T09:57:44;3.13;;;1.40;;
16735;SDS011;17990;49.548;9.730;2023-08-31T10:00:11;3.70;;;1.42;;
16735;SDS011;17990;49.548;9.730;2023-08-31T10:02:42;1.60;;;0.93;;
16735;SDS011;17990;49.548;9.730;2023-08-31T10:05:09;2.78;;;1.25;;
16735;SDS011;17990;49.548;9.730;2023-08-31T10:07:36;2.75;;;1.40;;
16735;SDS011;17990;49.548;9.730;2023-08-31T10:10:04;1.70;;;1.15;;
16735;SDS011;17990;49.548;9.730;2023-08-31T10:12:32;2.78;;;1.45;;
16735;SDS011;17990;49.548;9.730;2023-08-31T10:15:00;3.20;;;1.38;;
16735;SDS011;17990;49.548;9.730;2023-08-31T10:17:28;2.55;;;1.20;;
16735;SDS011;17990;49.548;9.730;2023-08-31T10:19:56;2.95;;;1.40;;
16735;SDS011;17990;49.548;9.730;2023-08-31T10:22:23;2.40;;;1.25;;
16735;SDS011;17990;49.548;9.730;2023-08-31T10:24:56;4.15;;;1.65;;
16735;SDS011;17990;49.548;9.730;2023-08-31T10:27:24;3.50;;;1.00;;
16735;SDS011;17990;49.548;9.730;2023-08-31T10:29:50;2.72;;;1.27;;
16735;SDS011;17990;49.548;9.730;2023-08-31T10:32:17;3.30;;;1.40;;
16735;SDS011;17990;49.548;9.730;2023-08-31T10:35:02;2.25;;;1.25;;
16735;SDS011;17990;49.548;9.730;2023-08-31T10:37:30;4.55;;;1.38;;
16735;SDS011;17990;49.548;9.730;2023-08-31T10:40:06;3.05;;;1.30;;
16735;SDS011;17990;49.548;9.730;2023-08-31T10:42:40;2.05;;;1.17;;
16735;SDS011;17990;49.548;9.730;2023-08-31T10:45:09;2.15;;;1.10;;
16735;SDS011;17990;49.548;9.730;2023-08-31T10:47:36;2.17;;;1.05;;
16735;SDS011;17990;49.548;9.730;2023-08-31T10:50:18;2.67;;;1.27;;
16735;SDS011;17990;49.548;9.730;2023-08-31T10:52:46;4.20;;;1.20;;
16735;SDS011;17990;49.548;9.730;2023-08-31T10:55:13;1.60;;;1.00;;
16735;SDS011;17990;49.548;9.730;2023-08-31T10:57:41;3.15;;;1.38;;
16735;SDS011;17990;49.548;9.730;2023-08-31T11:00:08;2.65;;;1.08;;
16735;SDS011;17990;49.548;9.730;2023-08-31T11:02:37;2.55;;;1.10;;
16735;SDS011;17990;49.548;9.730;2023-08-31T11:05:08;3.53;;;1.40;;
16735;SDS011;17990;49.548;9.730;2023-08-31T11:07:38;5.07;;;1.65;;
16735;SDS011;17990;49.548;9.730;2023-08-31T11:10:06;3.35;;;1.45;;
16735;SDS011;17990;49.548;9.730;2023-08-31T11:12:35;2.28;;;1.25;;
16735;SDS011;17990;49.548;9.730;2023-08-31T11:15:01;1.83;;;0.98;;
16735;SDS011;17990;49.548;9.730;2023-08-31T11:17:29;1.88;;;1.25;;
16735;SDS011;17990;49.548;9.730;2023-08-31T11:19:57;2.78;;;1.00;;
16735;SDS011;17990;49.548;9.730;2023-08-31T11:22:24;2.95;;;1.20;;
16735;SDS011;17990;49.548;9.730;2023-08-31T11:24:52;2.35;;;1.42;;
16735;SDS011;17990;49.548;9.730;2023-08-31T11:27:19;2.78;;;1.23;;
16735;SDS011;17990;49.548;9.730;2023-08-31T11:29:46;1.80;;;1.00;;
16735;SDS011;17990;49.548;9.730;2023-08-31T11:32:13;2.30;;;1.15;;
16735;SDS011;17990;49.548;9.730;2023-08-31T11:34:41;4.80;;;1.10;;
16735;SDS011;17990;49.548;9.730;2023-08-31T11:37:08;1.55;;;1.10;;
16735;SDS011;17990;49.548;9.730;2023-08-31T11:39:36;2.60;;;1.30;;
16735;SDS011;17990;49.548;9.730;2023-08-31T11:42:06;1.40;;;1.00;;
16735;SDS011;17990;49.548;9.730;2023-08-31T11:44:34;2.80;;;1.10;;
16735;SDS011;17990;49.548;9.730;2023-08-31T11:47:01;3.15;;;1.10;;
16735;SDS011;17990;49.548;9.730;2023-08-31T11:49:28;1.77;;;1.05;;
16735;SDS011;17990;49.548;9.730;2023-08-31T11:51:55;1.95;;;1.20;;
16735;SDS011;17990;49.548;9.730;2023-08-31T11:54:24;3.83;;;1.40;;
16735;SDS011;17990;49.548;9.730;2023-08-31T11:56:51;2.33;;;1.00;;
16735;SDS011;17990;49.548;9.730;2023-08-31T11:59:19;2.97;;;1.00;;
16735;SDS011;17990;49.548;9.730;2023-08-31T12:01:48;3.92;;;1.15;;
16735;SDS011;17990;49.548;9.730;2023-08-31T12:04:16;2.47;;;1.13;;
16735;SDS011;17990;49.548;9.730;2023-08-31T12:06:47;2.35;;;1.13;;
16735;SDS011;17990;49.548;9.730;2023-08-31T12:09:16;3.67;;;1.30;;
16735;SDS011;17990;49.548;9.730;2023-08-31T12:11:49;1.85;;;1.13;;
16735;SDS011;17990;49.548;9.730;2023-08-31T12:14:21;7.03;;;1.67;;
16735;SDS011;17990;49.548;9.730;2023-08-31T12:16:49;2.22;;;1.00;;
16735;SDS011;17990;49.548;9.730;2023-08-31T12:19:16;2.78;;;1.10;;
16735;SDS011;17990;49.548;9.730;2023-08-31T12:21:43;2.72;;;1.17;;
16735;SDS011;17990;49.548;9.730;2023-08-31T12:24:11;1.75;;;1.10;;
16735;SDS011;17990;49.548;9.730;2023-08-31T12:26:39;4.95;;;1.58;;
16735;SDS011;17990;49.548;9.730;2023-08-31T12:29:06;2.03;;;0.75;;
16735;SDS011;17990;49.548;9.730;2023-08-31T12:31:34;2.53;;;1.30;;
16735;SDS011;17990;49.548;9.730;2023-08-31T12:34:02;2.20;;;1.20;;
16735;SDS011;17990;49.548;9.730;2023-08-31T12:36:31;2.03;;;1.00;;
16735;SDS011;17990;49.548;9.730;2023-08-31T12:38:57;2.20;;;1.13;;
16735;SDS011;17990;49.548;9.730;2023-08-31T12:41:26;2.00;;;1.20;;
16735;SDS011;17990;49.548;9.730;2023-08-31T12:43:53;1.65;;;1.20;;
16735;SDS011;17990;49.548;9.730;2023-08-31T12:46:20;2.58;;;1.10;;
16735;SDS011;17990;49.548;9.730;2023-08-31T12:48:48;2.55;;;1.50;;
16735;SDS011;17990;49.548;9.730;2023-08-31T12:51:14;2.80;;;1.50;;
16735;SDS011;17990;49.548;9.730;2023-08-31T12:53:41;2.53;;;1.30;;
16735;SDS011;17990;49.548;9.730;2023-08-31T12:56:08;3.80;;;1.45;;
16735;SDS011;17990;49.548;9.730;2023-08-31T12:58:35;1.95;;;1.10;;
16735;SDS011;17990;49.548;9.730;2023-08-31T13:01:01;2.65;;;1.42;;
16735;SDS011;17990;49.548;9.730;2023-08-31T13:03:28;2.22;;;1.30;;
16735;SDS011;17990;49.548;9.730;2023-08-31T13:05:56;2.28;;;1.30;;
16735;SDS011;17990;49.548;9.730;2023-08-31T13:08:23;3.33;;;1.00;;
16735;SDS011;17990;49.548;9.730;2023-08-31T13:10:53;2.03;;;1.00;;
16735;SDS011;17990;49.548;9.730;2023-08-31T13:13:20;2.67;;;1.30;;
16735;SDS011;17990;49.548;9.730;2023-08-31T13:15:47;3.78;;;1.48;;
16735;SDS011;17990;49.548;9.730;2023-08-31T13:18:14;3.50;;;1.30;;
16735;SDS011;17990;49.548;9.730;2023-08-31T13:20:48;3.25;;;1.35;;
16735;SDS011;17990;49.548;9.730;2023-08-31T13:23:16;3.45;;;1.45;;
16735;SDS011;17990;49.548;9.730;2023-08-31T13:25:43;3.85;;;1.48;;
16735;SDS011;17990;49.548;9.730;2023-08-31T13:28:10;3.85;;;1.50;;
16735;SDS011;17990;49.548;9.730;2023-08-31T13:30:37;3.28;;;1.27;;
16735;SDS011;17990;49.548;9.730;2023-08-31T13:33:04;3.30;;;1.30;;
16735;SDS011;17990;49.548;9.730;2023-08-31T13:35:32;2.53;;;1.40;;
16735;SDS011;17990;49.548;9.730;2023-08-31T13:37:59;3.83;;;1.42;;
16735;SDS011;17990;49.548;9.730;2023-08-31T13:40:27;4.80;;;1.45;;
16735;SDS011;17990;49.548;9.730;2023-08-31T13:42:55;2.88;;;1.20;;
16735;SDS011;17990;49.548;9.730;2023-08-31T13:45:25;2.85;;;1.40;;
16735;SDS011;17990;49.548;9.730;2023-08-31T13:47:52;3.05;;;1.88;;
16735;SDS011;17990;49.548;9.730;2023-08-31T13:50:19;2.97;;;1.50;;
16735;SDS011;17990;49.548;9.730;2023-08-31T13:52:45;2.60;;;1.30;;
16735;SDS011;17990;49.548;9.730;2023-08-31T13:55:12;2.67;;;1.20;;
16735;SDS011;17990;49.548;9.730;2023-08-31T13:57:41;3.42;;;1.30;;
16735;SDS011;17990;49.548;9.730;2023-08-31T14:00:08;2.63;;;1.30;;
16735;SDS011;17990;49.548;9.730;2023-08-31T14:02:36;3.40;;;1.67;;
16735;SDS011;17990;49.548;9.730;2023-08-31T14:05:03;3.78;;;1.70;;
16735;SDS011;17990;49.548;9.730;2023-08-31T14:07:34;4.18;;;1.50;;
16735;SDS011;17990;49.548;9.730;2023-08-31T14:10:01;3.67;;;1.10;;
16735;SDS011;17990;49.548;9.730;2023-08-31T14:12:28;2.75;;;1.67;;
16735;SDS011;17990;49.548;9.730;2023-08-31T14:14:56;3.25;;;1.65;;
16735;SDS011;17990;49.548;9.730;2023-08-31T14:17:23;4.45;;;1.73;;
16735;SDS011;17990;49.548;9.730;2023-08-31T14:19:50;3.97;;;1.50;;
16735;SDS011;17990;49.548;9.730;2023-08-31T14:22:17;5.50;;;1.50;;
16735;SDS011;17990;49.548;9.730;2023-08-31T14:24:43;6.63;;;2.05;;
16735;SDS011;17990;49.548;9.730;2023-08-31T14:27:10;4.10;;;1.60;;
16735;SDS011;17990;49.548;9.730;2023-08-31T14:29:37;3.15;;;1.60;;
16735;SDS011;17990;49.548;9.730;2023-08-31T14:32:05;3.83;;;1.75;;
16735;SDS011;17990;49.548;9.730;2023-08-31T14:34:32;6.35;;;1.75;;
16735;SDS011;17990;49.548;9.730;2023-08-31T14:36:59;3.35;;;1.45;;
16735;SDS011;17990;49.548;9.730;2023-08-31T14:39:26;4.53;;;1.50;;
16735;SDS011;17990;49.548;9.730;2023-08-31T14:41:54;3.97;;;1.63;;
16735;SDS011;17990;49.548;9.730;2023-08-31T14:44:22;3.80;;;1.90;;
16735;SDS011;17990;49.548;9.730;2023-08-31T14:46:49;3.10;;;1.60;;
16735;SDS011;17990;49.548;9.730;2023-08-31T14:49:17;5.68;;;1.48;;
16735;SDS011;17990;49.548;9.730;2023-08-31T14:51:43;6.97;;;1.73;;